sensor_id;sensor_type;location;lat;lon;timestamp;P1;durP1;ratioP1;P2;durP2;ratioP2
38725;SDS011;24474;48.906;8.808;2023-02-28T00:01:07;4.82;;;2.97;;
38725;SDS011;24474;48.906;8.808;2023-02-28T00:03:32;5.00;;;3.03;;
38725;SDS011;24474;48.906;8.808;2023-02-28T00:06:03;6.38;;;3.15;;
38725;SDS011;24474;48.906;8.808;2023-02-28T00:08:31;6.75;;;3.10;;
38725;SDS011;24474;48.906;8.808;2023-02-28T00:11:01;5.75;;;3.13;;
38725;SDS011;24474;48.906;8.808;2023-02-28T00:13:29;5.47;;;3.40;;
38725;SDS011;24474;48.906;8.808;2023-02-28T00:16:03;5.45;;;3.13;;
38725;SDS011;24474;48.906;8.808;2023-02-28T00:18:30;5.63;;;3.38;;
38725;SDS011;24474;48.906;8.808;2023-02-28T00:20:57;4.55;;;3.35;;
38725;SDS011;24474;48.906;8.808;2023-02-28T00:23:23;4.72;;;2.97;;
38725;SDS011;24474;48.906;8.808;2023-02-28T00:25:49;3.88;;;3.03;;
38725;SDS011;24474;48.906;8.808;2023-02-28T00:28:17;4.35;;;3.05;;
38725;SDS011;24474;48.906;8.808;2023-02-28T00:30:43;5.88;;;3.25;;
38725;SDS011;24474;48.906;8.808;2023-02-28T00:33:10;4.65;;;3.00;;
38725;SDS011;24474;48.906;8.808;2023-02-28T00:35:36;5.20;;;3.00;;
38725;SDS011;24474;48.906;8.808;2023-02-28T00:38:02;6.63;;;3.30;;
38725;SDS011;24474;48.906;8.808;2023-02-28T00:40:31;5.45;;;3.58;;
38725;SDS011;24474;48.906;8.808;2023-02-28T00:42:56;5.60;;;3.35;;
38725;SDS011;24474;48.906;8.808;2023-02-28T00:45:23;6.90;;;3.30;;
38725;SDS011;24474;48.906;8.808;2023-02-28T00:47:49;5.30;;;3.20;;
38725;SDS011;24474;48.906;8.808;2023-02-28T00:50:24;5.82;;;3.50;;
38725;SDS011;24474;48.906;8.808;2023-02-28T00:52:51;5.80;;;3.47;;
38725;SDS011;24474;48.906;8.808;2023-02-28T00:55:17;5.15;;;3.65;;
38725;SDS011;24474;48.906;8.808;2023-02-28T00:57:44;6.45;;;3.22;;
38725;SDS011;24474;48.906;8.808;2023-02-28T01:00:10;6.03;;;3.40;;
38725;SDS011;24474;48.906;8.808;2023-02-28T01:02:37;6.18;;;3.30;;
38725;SDS011;24474;48.906;8.808;2023-02-28T01:05:04;6.22;;;3.72;;
38725;SDS011;24474;48.906;8.808;2023-02-28T01:07:31;6.20;;;3.10;;
38725;SDS011;24474;48.906;8.808;2023-02-28T01:09:58;5.82;;;3.50;;
38725;SDS011;24474;48.906;8.808;2023-02-28T01:12:23;5.85;;;3.35;;
38725;SDS011;24474;48.906;8.808;2023-02-28T01:14:50;7.13;;;3.90;;
38725;SDS011;24474;48.906;8.808;2023-02-28T01:17:17;5.80;;;3.33;;
38725;SDS011;24474;48.906;8.808;2023-02-28T01:19:44;8.73;;;3.63;;
38725;SDS011;24474;48.906;8.808;2023-02-28T01:22:09;5.35;;;3.55;;
38725;SDS011;24474;48.906;8.808;2023-02-28T01:24:37;5.57;;;3.50;;
38725;SDS011;24474;48.906;8.808;2023-02-28T01:27:05;8.30;;;3.60;;
38725;SDS011;24474;48.906;8.808;2023-02-28T01:29:32;6.80;;;3.60;;
38725;SDS011;24474;48.906;8.808;2023-02-28T01:31:58;4.90;;;3.20;;
38725;SDS011;24474;48.906;8.808;2023-02-28T01:34:25;5.43;;;3.35;;
38725;SDS011;24474;48.906;8.808;2023-02-28T01:36:51;5.07;;;3.40;;
38725;SDS011;24474;48.906;8.808;2023-02-28T01:39:19;5.60;;;3.10;;
38725;SDS011;24474;48.906;8.808;2023-02-28T01:41:46;5.63;;;3.30;;
38725;SDS011;24474;48.906;8.808;2023-02-28T01:47:17;5.70;;;3.30;;
38725;SDS011;24474;48.906;8.808;2023-02-28T01:49:46;5.10;;;3.55;;
38725;SDS011;24474;48.906;8.808;2023-02-28T01:52:13;5.85;;;2.92;;
38725;SDS011;24474;48.906;8.808;2023-02-28T01:54:45;5.70;;;3.33;;
38725;SDS011;24474;48.906;8.808;2023-02-28T01:57:19;5.97;;;3.47;;
38725;SDS011;24474;48.906;8.808;2023-02-28T01:59:51;5.43;;;3.25;;
38725;SDS011;24474;48.906;8.808;2023-02-28T02:02:34;5.35;;;3.30;;
38725;SDS011;24474;48.906;8.808;2023-02-28T02:05:06;4.93;;;3.25;;
38725;SDS011;24474;48.906;8.808;2023-02-28T02:07:36;6.80;;;3.38;;
38725;SDS011;24474;48.906;8.808;2023-02-28T02:10:10;6.18;;;3.53;;
38725;SDS011;24474;48.906;8.808;2023-02-28T02:28:01;5.55;;;3.58;;
38725;SDS011;24474;48.906;8.808;2023-02-28T02:40:14;5.75;;;3.88;;
38725;SDS011;24474;48.906;8.808;2023-02-28T02:45:38;6.25;;;3.25;;
38725;SDS011;24474;48.906;8.808;2023-02-28T02:48:11;5.65;;;3.45;;
38725;SDS011;24474;48.906;8.808;2023-02-28T02:50:55;6.28;;;3.72;;
38725;SDS011;24474;48.906;8.808;2023-02-28T02:53:27;5.30;;;3.60;;
38725;SDS011;24474;48.906;8.808;2023-02-28T02:56:02;5.82;;;3.67;;
38725;SDS011;24474;48.906;8.808;2023-02-28T02:58:32;6.07;;;3.97;;
38725;SDS011;24474;48.906;8.808;2023-02-28T03:01:07;6.32;;;3.70;;
38725;SDS011;24474;48.906;8.808;2023-02-28T03:04:02;9.52;;;4.50;;
38725;SDS011;24474;48.906;8.808;2023-02-28T03:06:35;6.10;;;3.95;;
38725;SDS011;24474;48.906;8.808;2023-02-28T03:09:02;7.40;;;3.75;;
38725;SDS011;24474;48.906;8.808;2023-02-28T03:11:30;5.78;;;4.05;;
38725;SDS011;24474;48.906;8.808;2023-02-28T03:21:55;5.53;;;4.20;;
38725;SDS011;24474;48.906;8.808;2023-02-28T03:24:45;8.35;;;4.40;;
38725;SDS011;24474;48.906;8.808;2023-02-28T03:30:00;6.57;;;4.38;;
38725;SDS011;24474;48.906;8.808;2023-02-28T03:35:26;6.05;;;4.50;;
38725;SDS011;24474;48.906;8.808;2023-02-28T03:38:24;9.05;;;4.55;;
38725;SDS011;24474;48.906;8.808;2023-02-28T03:41:10;7.65;;;4.30;;
38725;SDS011;24474;48.906;8.808;2023-02-28T03:43:55;10.38;;;4.70;;
38725;SDS011;24474;48.906;8.808;2023-02-28T03:46:26;7.68;;;5.05;;
38725;SDS011;24474;48.906;8.808;2023-02-28T03:49:34;8.68;;;4.60;;
38725;SDS011;24474;48.906;8.808;2023-02-28T03:51:57;6.03;;;4.63;;
38725;SDS011;24474;48.906;8.808;2023-02-28T03:54:31;6.38;;;4.53;;
38725;SDS011;24474;48.906;8.808;2023-02-28T03:57:07;6.20;;;4.85;;
38725;SDS011;24474;48.906;8.808;2023-02-28T03:59:59;9.10;;;5.05;;
38725;SDS011;24474;48.906;8.808;2023-02-28T04:02:54;7.72;;;4.85;;
38725;SDS011;24474;48.906;8.808;2023-02-28T04:05:21;6.72;;;4.82;;
38725;SDS011;24474;48.906;8.808;2023-02-28T04:07:47;6.75;;;4.97;;
38725;SDS011;24474;48.906;8.808;2023-02-28T04:10:15;6.95;;;4.45;;
38725;SDS011;24474;48.906;8.808;2023-02-28T04:12:42;8.18;;;4.60;;
38725;SDS011;24474;48.906;8.808;2023-02-28T04:15:08;7.15;;;4.50;;
38725;SDS011;24474;48.906;8.808;2023-02-28T04:17:36;8.43;;;4.82;;
38725;SDS011;24474;48.906;8.808;2023-02-28T04:20:02;7.32;;;4.80;;
38725;SDS011;24474;48.906;8.808;2023-02-28T04:22:30;6.88;;;4.40;;
38725;SDS011;24474;48.906;8.808;2023-02-28T04:24:56;7.40;;;4.88;;
38725;SDS011;24474;48.906;8.808;2023-02-28T04:27:23;8.13;;;4.80;;
38725;SDS011;24474;48.906;8.808;2023-02-28T04:29:49;8.10;;;4.82;;
38725;SDS011;24474;48.906;8.808;2023-02-28T04:32:16;6.70;;;4.45;;
38725;SDS011;24474;48.906;8.808;2023-02-28T04:34:43;8.38;;;5.28;;
38725;SDS011;24474;48.906;8.808;2023-02-28T04:37:10;8.25;;;5.15;;
38725;SDS011;24474;48.906;8.808;2023-02-28T04:39:36;6.90;;;4.90;;
38725;SDS011;24474;48.906;8.808;2023-02-28T04:42:03;8.52;;;5.35;;
38725;SDS011;24474;48.906;8.808;2023-02-28T04:44:29;7.45;;;4.80;;
38725;SDS011;24474;48.906;8.808;2023-02-28T04:46:58;7.93;;;5.43;;
38725;SDS011;24474;48.906;8.808;2023-02-28T04:49:24;8.50;;;5.57;;
38725;SDS011;24474;48.906;8.808;2023-02-28T04:51:51;8.80;;;5.65;;
38725;SDS011;24474;48.906;8.808;2023-02-28T04:54:17;10.02;;;6.10;;
38725;SDS011;24474;48.906;8.808;2023-02-28T04:56:44;9.55;;;6.28;;
38725;SDS011;24474;48.906;8.808;2023-02-28T04:59:10;11.40;;;7.15;;
38725;SDS011;24474;48.906;8.808;2023-02-28T05:01:36;10.32;;;6.47;;
38725;SDS011;24474;48.906;8.808;2023-02-28T05:04:03;11.45;;;6.80;;
38725;SDS011;24474;48.906;8.808;2023-02-28T05:06:30;10.20;;;7.10;;
38725;SDS011;24474;48.906;8.808;2023-02-28T05:08:58;11.43;;;7.35;;
38725;SDS011;24474;48.906;8.808;2023-02-28T05:11:27;10.38;;;6.75;;
38725;SDS011;24474;48.906;8.808;2023-02-28T05:14:00;9.43;;;6.32;;
38725;SDS011;24474;48.906;8.808;2023-02-28T05:16:28;8.65;;;5.80;;
38725;SDS011;24474;48.906;8.808;2023-02-28T05:18:55;8.38;;;5.88;;
38725;SDS011;24474;48.906;8.808;2023-02-28T05:21:25;9.15;;;6.05;;
38725;SDS011;24474;48.906;8.808;2023-02-28T05:24:06;10.27;;;5.63;;
38725;SDS011;24474;48.906;8.808;2023-02-28T05:26:53;11.35;;;6.20;;
38725;SDS011;24474;48.906;8.808;2023-02-28T05:29:21;8.02;;;5.75;;
38725;SDS011;24474;48.906;8.808;2023-02-28T05:31:57;8.57;;;5.90;;
38725;SDS011;24474;48.906;8.808;2023-02-28T05:34:24;9.32;;;5.88;;
38725;SDS011;24474;48.906;8.808;2023-02-28T05:36:51;8.88;;;6.22;;
38725;SDS011;24474;48.906;8.808;2023-02-28T05:39:16;10.85;;;6.40;;
38725;SDS011;24474;48.906;8.808;2023-02-28T05:41:42;13.85;;;8.35;;
38725;SDS011;24474;48.906;8.808;2023-02-28T05:44:08;9.18;;;6.22;;
38725;SDS011;24474;48.906;8.808;2023-02-28T05:46:41;9.85;;;6.32;;
38725;SDS011;24474;48.906;8.808;2023-02-28T05:49:07;10.00;;;6.38;;
38725;SDS011;24474;48.906;8.808;2023-02-28T05:51:34;11.73;;;6.90;;
38725;SDS011;24474;48.906;8.808;2023-02-28T05:54:20;9.27;;;6.18;;
38725;SDS011;24474;48.906;8.808;2023-02-28T05:56:56;10.40;;;6.35;;
38725;SDS011;24474;48.906;8.808;2023-02-28T05:59:28;12.88;;;8.45;;
38725;SDS011;24474;48.906;8.808;2023-02-28T06:01:54;10.32;;;6.30;;
38725;SDS011;24474;48.906;8.808;2023-02-28T06:04:21;11.82;;;6.18;;
38725;SDS011;24474;48.906;8.808;2023-02-28T06:06:48;8.43;;;5.68;;
38725;SDS011;24474;48.906;8.808;2023-02-28T06:09:16;9.88;;;6.07;;
38725;SDS011;24474;48.906;8.808;2023-02-28T06:11:44;8.63;;;6.07;;
38725;SDS011;24474;48.906;8.808;2023-02-28T06:14:17;9.65;;;5.97;;
38725;SDS011;24474;48.906;8.808;2023-02-28T06:16:44;8.77;;;6.07;;
38725;SDS011;24474;48.906;8.808;2023-02-28T06:19:10;9.30;;;6.05;;
38725;SDS011;24474;48.906;8.808;2023-02-28T06:21:37;8.65;;;5.95;;
38725;SDS011;24474;48.906;8.808;2023-02-28T06:24:03;8.77;;;6.30;;
38725;SDS011;24474;48.906;8.808;2023-02-28T06:26:29;12.07;;;7.85;;
38725;SDS011;24474;48.906;8.808;2023-02-28T06:28:58;10.48;;;6.10;;
38725;SDS011;24474;48.906;8.808;2023-02-28T06:31:25;9.82;;;6.47;;
38725;SDS011;24474;48.906;8.808;2023-02-28T06:33:51;9.90;;;6.53;;
38725;SDS011;24474;48.906;8.808;2023-02-28T06:36:18;11.75;;;8.98;;
38725;SDS011;24474;48.906;8.808;2023-02-28T06:38:43;11.90;;;6.05;;
38725;SDS011;24474;48.906;8.808;2023-02-28T06:41:10;8.38;;;5.88;;
38725;SDS011;24474;48.906;8.808;2023-02-28T06:43:37;9.15;;;6.35;;
38725;SDS011;24474;48.906;8.808;2023-02-28T06:46:06;10.75;;;6.38;;
38725;SDS011;24474;48.906;8.808;2023-02-28T06:48:33;9.18;;;5.93;;
38725;SDS011;24474;48.906;8.808;2023-02-28T06:51:03;9.57;;;5.93;;
38725;SDS011;24474;48.906;8.808;2023-02-28T06:53:31;9.38;;;5.88;;
38725;SDS011;24474;48.906;8.808;2023-02-28T06:55:57;9.77;;;6.07;;
38725;SDS011;24474;48.906;8.808;2023-02-28T06:58:22;9.82;;;6.75;;
38725;SDS011;24474;48.906;8.808;2023-02-28T07:00:50;9.93;;;6.10;;
38725;SDS011;24474;48.906;8.808;2023-02-28T07:03:17;9.15;;;5.70;;
38725;SDS011;24474;48.906;8.808;2023-02-28T07:05:43;14.40;;;7.90;;
38725;SDS011;24474;48.906;8.808;2023-02-28T07:08:10;9.65;;;6.22;;
38725;SDS011;24474;48.906;8.808;2023-02-28T07:10:39;10.05;;;6.10;;
38725;SDS011;24474;48.906;8.808;2023-02-28T07:13:06;11.45;;;6.05;;
38725;SDS011;24474;48.906;8.808;2023-02-28T07:15:33;10.60;;;6.28;;
38725;SDS011;24474;48.906;8.808;2023-02-28T07:17:59;10.18;;;6.65;;
38725;SDS011;24474;48.906;8.808;2023-02-28T07:20:26;10.18;;;5.90;;
38725;SDS011;24474;48.906;8.808;2023-02-28T07:22:55;8.97;;;6.00;;
38725;SDS011;24474;48.906;8.808;2023-02-28T07:25:24;9.85;;;5.85;;
38725;SDS011;24474;48.906;8.808;2023-02-28T07:27:51;10.52;;;6.70;;
38725;SDS011;24474;48.906;8.808;2023-02-28T07:30:17;7.75;;;6.15;;
38725;SDS011;24474;48.906;8.808;2023-02-28T07:32:45;10.77;;;6.50;;
38725;SDS011;24474;48.906;8.808;2023-02-28T07:35:11;10.60;;;6.40;;
38725;SDS011;24474;48.906;8.808;2023-02-28T07:37:37;11.23;;;6.72;;
38725;SDS011;24474;48.906;8.808;2023-02-28T07:40:05;10.73;;;6.28;;
38725;SDS011;24474;48.906;8.808;2023-02-28T07:42:38;10.25;;;6.32;;
38725;SDS011;24474;48.906;8.808;2023-02-28T07:45:07;10.82;;;6.93;;
38725;SDS011;24474;48.906;8.808;2023-02-28T07:47:40;9.38;;;6.55;;
38725;SDS011;24474;48.906;8.808;2023-02-28T07:50:08;9.82;;;6.60;;
38725;SDS011;24474;48.906;8.808;2023-02-28T07:52:37;8.98;;;6.15;;
38725;SDS011;24474;48.906;8.808;2023-02-28T07:55:05;10.88;;;6.22;;
38725;SDS011;24474;48.906;8.808;2023-02-28T07:57:31;9.35;;;6.45;;
38725;SDS011;24474;48.906;8.808;2023-02-28T07:59:58;8.07;;;5.97;;
38725;SDS011;24474;48.906;8.808;2023-02-28T08:02:25;10.63;;;6.53;;
38725;SDS011;24474;48.906;8.808;2023-02-28T08:04:51;9.65;;;6.15;;
38725;SDS011;24474;48.906;8.808;2023-02-28T08:07:19;10.02;;;6.68;;
38725;SDS011;24474;48.906;8.808;2023-02-28T08:09:45;11.73;;;6.90;;
38725;SDS011;24474;48.906;8.808;2023-02-28T08:12:12;10.38;;;6.95;;
38725;SDS011;24474;48.906;8.808;2023-02-28T08:14:38;12.27;;;7.00;;
38725;SDS011;24474;48.906;8.808;2023-02-28T08:17:04;8.88;;;6.47;;
38725;SDS011;24474;48.906;8.808;2023-02-28T08:19:30;11.70;;;7.38;;
38725;SDS011;24474;48.906;8.808;2023-02-28T08:21:56;11.02;;;7.47;;
38725;SDS011;24474;48.906;8.808;2023-02-28T08:24:23;10.57;;;7.25;;
38725;SDS011;24474;48.906;8.808;2023-02-28T08:26:48;10.05;;;7.40;;
38725;SDS011;24474;48.906;8.808;2023-02-28T08:29:14;10.82;;;7.10;;
38725;SDS011;24474;48.906;8.808;2023-02-28T08:31:40;10.77;;;7.28;;
38725;SDS011;24474;48.906;8.808;2023-02-28T08:34:07;9.27;;;6.95;;
38725;SDS011;24474;48.906;8.808;2023-02-28T08:36:34;10.23;;;6.93;;
38725;SDS011;24474;48.906;8.808;2023-02-28T08:39:01;10.43;;;7.40;;
38725;SDS011;24474;48.906;8.808;2023-02-28T08:41:26;13.57;;;7.80;;
38725;SDS011;24474;48.906;8.808;2023-02-28T08:43:52;10.07;;;7.10;;
38725;SDS011;24474;48.906;8.808;2023-02-28T08:46:18;10.98;;;7.28;;
38725;SDS011;24474;48.906;8.808;2023-02-28T08:48:44;15.00;;;7.35;;
38725;SDS011;24474;48.906;8.808;2023-02-28T08:51:11;10.43;;;7.68;;
38725;SDS011;24474;48.906;8.808;2023-02-28T08:53:47;11.05;;;7.90;;
38725;SDS011;24474;48.906;8.808;2023-02-28T08:56:14;11.95;;;7.93;;
38725;SDS011;24474;48.906;8.808;2023-02-28T08:58:43;10.20;;;7.60;;
38725;SDS011;24474;48.906;8.808;2023-02-28T09:01:10;13.00;;;7.80;;
38725;SDS011;24474;48.906;8.808;2023-02-28T09:03:38;12.32;;;7.57;;
38725;SDS011;24474;48.906;8.808;2023-02-28T09:06:06;11.25;;;7.35;;
38725;SDS011;24474;48.906;8.808;2023-02-28T09:08:33;12.85;;;8.10;;
38725;SDS011;24474;48.906;8.808;2023-02-28T09:10:59;11.35;;;7.93;;
38725;SDS011;24474;48.906;8.808;2023-02-28T09:13:27;13.02;;;8.30;;
38725;SDS011;24474;48.906;8.808;2023-02-28T09:15:53;14.40;;;7.97;;
38725;SDS011;24474;48.906;8.808;2023-02-28T09:18:19;11.50;;;7.93;;
38725;SDS011;24474;48.906;8.808;2023-02-28T09:20:45;13.23;;;8.02;;
38725;SDS011;24474;48.906;8.808;2023-02-28T09:23:11;11.80;;;8.30;;
38725;SDS011;24474;48.906;8.808;2023-02-28T09:25:37;12.70;;;8.10;;
38725;SDS011;24474;48.906;8.808;2023-02-28T09:28:03;12.38;;;7.65;;
38725;SDS011;24474;48.906;8.808;2023-02-28T09:30:29;11.18;;;8.15;;
38725;SDS011;24474;48.906;8.808;2023-02-28T09:32:55;11.90;;;8.30;;
38725;SDS011;24474;48.906;8.808;2023-02-28T09:35:22;13.18;;;8.25;;
38725;SDS011;24474;48.906;8.808;2023-02-28T09:37:49;13.77;;;7.85;;
38725;SDS011;24474;48.906;8.808;2023-02-28T09:40:16;13.15;;;8.50;;
38725;SDS011;24474;48.906;8.808;2023-02-28T09:42:45;12.20;;;8.27;;
38725;SDS011;24474;48.906;8.808;2023-02-28T09:48:15;14.57;;;8.85;;
38725;SDS011;24474;48.906;8.808;2023-02-28T09:51:09;11.90;;;8.15;;
38725;SDS011;24474;48.906;8.808;2023-02-28T09:53:50;13.85;;;8.82;;
38725;SDS011;24474;48.906;8.808;2023-02-28T09:56:21;11.93;;;8.95;;
38725;SDS011;24474;48.906;8.808;2023-02-28T09:59:04;14.05;;;8.73;;
38725;SDS011;24474;48.906;8.808;2023-02-28T10:01:43;15.20;;;9.15;;
38725;SDS011;24474;48.906;8.808;2023-02-28T10:07:03;11.02;;;8.30;;
38725;SDS011;24474;48.906;8.808;2023-02-28T10:10:10;12.98;;;8.70;;
38725;SDS011;24474;48.906;8.808;2023-02-28T10:12:55;12.38;;;9.52;;
38725;SDS011;24474;48.906;8.808;2023-02-28T10:15:25;12.98;;;8.90;;
38725;SDS011;24474;48.906;8.808;2023-02-28T10:20:28;13.68;;;9.30;;
38725;SDS011;24474;48.906;8.808;2023-02-28T10:23:13;11.23;;;8.15;;
38725;SDS011;24474;48.906;8.808;2023-02-28T10:26:03;15.50;;;10.10;;
38725;SDS011;24474;48.906;8.808;2023-02-28T10:28:37;14.15;;;9.20;;
38725;SDS011;24474;48.906;8.808;2023-02-28T10:31:03;15.07;;;9.98;;
38725;SDS011;24474;48.906;8.808;2023-02-28T10:33:30;12.05;;;8.43;;
38725;SDS011;24474;48.906;8.808;2023-02-28T10:35:59;13.20;;;8.57;;
38725;SDS011;24474;48.906;8.808;2023-02-28T10:38:26;12.73;;;9.07;;
38725;SDS011;24474;48.906;8.808;2023-02-28T10:41:08;12.50;;;8.43;;
38725;SDS011;24474;48.906;8.808;2023-02-28T10:43:36;11.38;;;8.45;;
38725;SDS011;24474;48.906;8.808;2023-02-28T10:46:13;13.20;;;9.10;;
38725;SDS011;24474;48.906;8.808;2023-02-28T10:49:02;14.18;;;8.15;;
38725;SDS011;24474;48.906;8.808;2023-02-28T10:51:38;13.60;;;9.52;;
38725;SDS011;24474;48.906;8.808;2023-02-28T10:54:14;11.73;;;8.85;;
38725;SDS011;24474;48.906;8.808;2023-02-28T10:56:44;14.02;;;10.95;;
38725;SDS011;24474;48.906;8.808;2023-02-28T11:01:53;10.95;;;8.35;;
38725;SDS011;24474;48.906;8.808;2023-02-28T11:07:00;11.20;;;8.90;;
38725;SDS011;24474;48.906;8.808;2023-02-28T11:09:37;11.02;;;8.50;;
38725;SDS011;24474;48.906;8.808;2023-02-28T11:12:07;14.80;;;9.40;;
38725;SDS011;24474;48.906;8.808;2023-02-28T11:14:49;12.23;;;8.90;;
38725;SDS011;24474;48.906;8.808;2023-02-28T11:17:24;12.15;;;9.25;;
38725;SDS011;24474;48.906;8.808;2023-02-28T11:20:04;10.75;;;8.40;;
38725;SDS011;24474;48.906;8.808;2023-02-28T11:22:35;13.93;;;8.82;;
38725;SDS011;24474;48.906;8.808;2023-02-28T11:25:47;12.77;;;8.70;;
38725;SDS011;24474;48.906;8.808;2023-02-28T11:28:06;12.63;;;8.90;;
38725;SDS011;24474;48.906;8.808;2023-02-28T11:38:53;13.23;;;9.23;;
38725;SDS011;24474;48.906;8.808;2023-02-28T11:41:26;12.70;;;8.65;;
38725;SDS011;24474;48.906;8.808;2023-02-28T11:44:23;11.70;;;8.73;;
38725;SDS011;24474;48.906;8.808;2023-02-28T11:47:25;12.95;;;8.60;;
38725;SDS011;24474;48.906;8.808;2023-02-28T11:59:08;11.35;;;8.70;;
38725;SDS011;24474;48.906;8.808;2023-02-28T12:15:03;14.00;;;9.98;;
38725;SDS011;24474;48.906;8.808;2023-02-28T12:27:07;12.60;;;9.10;;
38725;SDS011;24474;48.906;8.808;2023-02-28T12:35:19;13.73;;;8.48;;
38725;SDS011;24474;48.906;8.808;2023-02-28T12:37:59;11.40;;;8.18;;
38725;SDS011;24474;48.906;8.808;2023-02-28T12:41:16;12.52;;;9.18;;
38725;SDS011;24474;48.906;8.808;2023-02-28T12:43:31;12.43;;;8.73;;
38725;SDS011;24474;48.906;8.808;2023-02-28T12:46:29;11.88;;;8.73;;
38725;SDS011;24474;48.906;8.808;2023-02-28T12:49:04;11.45;;;8.65;;
38725;SDS011;24474;48.906;8.808;2023-02-28T12:51:44;11.60;;;8.65;;
38725;SDS011;24474;48.906;8.808;2023-02-28T12:54:26;11.90;;;9.00;;
38725;SDS011;24474;48.906;8.808;2023-02-28T12:57:06;10.88;;;8.57;;
38725;SDS011;24474;48.906;8.808;2023-02-28T12:59:47;10.60;;;8.20;;
38725;SDS011;24474;48.906;8.808;2023-02-28T13:10:57;11.80;;;8.23;;
38725;SDS011;24474;48.906;8.808;2023-02-28T13:13:25;10.45;;;8.02;;
38725;SDS011;24474;48.906;8.808;2023-02-28T13:16:07;11.15;;;8.40;;
38725;SDS011;24474;48.906;8.808;2023-02-28T13:18:36;11.60;;;8.45;;
38725;SDS011;24474;48.906;8.808;2023-02-28T13:23:57;10.93;;;8.57;;
38725;SDS011;24474;48.906;8.808;2023-02-28T13:34:38;12.80;;;8.60;;
38725;SDS011;24474;48.906;8.808;2023-02-28T13:39:58;14.88;;;8.82;;
38725;SDS011;24474;48.906;8.808;2023-02-28T13:42:53;10.32;;;8.10;;
38725;SDS011;24474;48.906;8.808;2023-02-28T13:45:29;11.27;;;8.48;;
38725;SDS011;24474;48.906;8.808;2023-02-28T13:48:02;14.50;;;9.05;;
38725;SDS011;24474;48.906;8.808;2023-02-28T13:50:34;12.27;;;8.55;;
38725;SDS011;24474;48.906;8.808;2023-02-28T13:56:05;10.55;;;8.27;;
38725;SDS011;24474;48.906;8.808;2023-02-28T14:01:45;12.57;;;8.85;;
38725;SDS011;24474;48.906;8.808;2023-02-28T14:07:22;12.85;;;8.82;;
38725;SDS011;24474;48.906;8.808;2023-02-28T14:10:02;11.63;;;8.38;;
38725;SDS011;24474;48.906;8.808;2023-02-28T14:18:32;13.10;;;8.77;;
38725;SDS011;24474;48.906;8.808;2023-02-28T14:26:53;11.35;;;8.60;;
38725;SDS011;24474;48.906;8.808;2023-02-28T14:38:34;12.00;;;9.15;;
38725;SDS011;24474;48.906;8.808;2023-02-28T14:41:12;11.70;;;8.73;;
38725;SDS011;24474;48.906;8.808;2023-02-28T14:43:48;10.82;;;8.40;;
38725;SDS011;24474;48.906;8.808;2023-02-28T14:46:21;11.38;;;9.05;;
38725;SDS011;24474;48.906;8.808;2023-02-28T14:48:51;14.98;;;10.45;;
38725;SDS011;24474;48.906;8.808;2023-02-28T14:51:20;13.13;;;9.95;;
38725;SDS011;24474;48.906;8.808;2023-02-28T14:53:51;16.25;;;11.38;;
38725;SDS011;24474;48.906;8.808;2023-02-28T14:56:27;12.32;;;9.23;;
38725;SDS011;24474;48.906;8.808;2023-02-28T14:59:03;13.57;;;9.85;;
38725;SDS011;24474;48.906;8.808;2023-02-28T15:01:30;14.63;;;10.40;;
38725;SDS011;24474;48.906;8.808;2023-02-28T15:04:06;12.07;;;9.63;;
38725;SDS011;24474;48.906;8.808;2023-02-28T15:07:06;12.77;;;9.43;;
38725;SDS011;24474;48.906;8.808;2023-02-28T15:09:40;12.10;;;9.30;;
38725;SDS011;24474;48.906;8.808;2023-02-28T15:12:06;11.50;;;9.25;;
38725;SDS011;24474;48.906;8.808;2023-02-28T15:14:35;13.80;;;9.88;;
38725;SDS011;24474;48.906;8.808;2023-02-28T15:17:06;13.75;;;9.85;;
38725;SDS011;24474;48.906;8.808;2023-02-28T15:19:40;12.57;;;9.40;;
38725;SDS011;24474;48.906;8.808;2023-02-28T15:22:14;12.38;;;9.93;;
38725;SDS011;24474;48.906;8.808;2023-02-28T15:24:50;14.63;;;10.02;;
38725;SDS011;24474;48.906;8.808;2023-02-28T15:27:25;14.32;;;9.50;;
38725;SDS011;24474;48.906;8.808;2023-02-28T15:29:56;14.60;;;9.75;;
38725;SDS011;24474;48.906;8.808;2023-02-28T15:32:37;14.48;;;9.40;;
38725;SDS011;24474;48.906;8.808;2023-02-28T15:38:36;15.63;;;10.38;;
38725;SDS011;24474;48.906;8.808;2023-02-28T15:40:58;13.32;;;9.75;;
38725;SDS011;24474;48.906;8.808;2023-02-28T15:43:28;13.73;;;10.20;;
38725;SDS011;24474;48.906;8.808;2023-02-28T15:48:33;13.05;;;9.10;;
38725;SDS011;24474;48.906;8.808;2023-02-28T15:51:06;13.27;;;9.50;;
38725;SDS011;24474;48.906;8.808;2023-02-28T15:53:34;14.00;;;10.02;;
38725;SDS011;24474;48.906;8.808;2023-02-28T15:56:25;14.13;;;9.60;;
38725;SDS011;24474;48.906;8.808;2023-02-28T15:58:55;13.07;;;10.27;;
38725;SDS011;24474;48.906;8.808;2023-02-28T16:01:40;12.55;;;9.35;;
38725;SDS011;24474;48.906;8.808;2023-02-28T16:04:17;14.60;;;9.48;;
38725;SDS011;24474;48.906;8.808;2023-02-28T16:07:04;11.65;;;9.23;;
38725;SDS011;24474;48.906;8.808;2023-02-28T16:09:33;12.65;;;9.15;;
38725;SDS011;24474;48.906;8.808;2023-02-28T16:12:00;13.60;;;9.98;;
38725;SDS011;24474;48.906;8.808;2023-02-28T16:14:29;13.85;;;9.55;;
38725;SDS011;24474;48.906;8.808;2023-02-28T16:17:02;16.40;;;9.77;;
38725;SDS011;24474;48.906;8.808;2023-02-28T16:19:29;15.77;;;10.60;;
38725;SDS011;24474;48.906;8.808;2023-02-28T16:21:55;13.77;;;10.38;;
38725;SDS011;24474;48.906;8.808;2023-02-28T16:24:21;15.15;;;10.18;;
38725;SDS011;24474;48.906;8.808;2023-02-28T16:26:48;14.45;;;10.27;;
38725;SDS011;24474;48.906;8.808;2023-02-28T16:29:24;14.40;;;10.48;;
38725;SDS011;24474;48.906;8.808;2023-02-28T16:32:00;13.70;;;9.93;;
38725;SDS011;24474;48.906;8.808;2023-02-28T16:34:28;13.68;;;9.68;;
38725;SDS011;24474;48.906;8.808;2023-02-28T16:36:54;13.32;;;10.07;;
38725;SDS011;24474;48.906;8.808;2023-02-28T16:39:19;12.55;;;9.82;;
38725;SDS011;24474;48.906;8.808;2023-02-28T16:41:45;12.98;;;9.75;;
38725;SDS011;24474;48.906;8.808;2023-02-28T16:44:14;15.90;;;10.48;;
38725;SDS011;24474;48.906;8.808;2023-02-28T16:46:59;16.60;;;10.90;;
38725;SDS011;24474;48.906;8.808;2023-02-28T16:49:27;13.30;;;10.68;;
38725;SDS011;24474;48.906;8.808;2023-02-28T16:51:53;14.20;;;10.25;;
38725;SDS011;24474;48.906;8.808;2023-02-28T16:54:19;16.30;;;10.75;;
38725;SDS011;24474;48.906;8.808;2023-02-28T16:56:46;14.57;;;10.13;;
38725;SDS011;24474;48.906;8.808;2023-02-28T16:59:13;13.73;;;9.77;;
38725;SDS011;24474;48.906;8.808;2023-02-28T17:01:44;15.18;;;10.68;;
38725;SDS011;24474;48.906;8.808;2023-02-28T17:04:10;15.95;;;11.73;;
38725;SDS011;24474;48.906;8.808;2023-02-28T17:06:39;15.30;;;11.20;;
38725;SDS011;24474;48.906;8.808;2023-02-28T17:09:08;12.20;;;10.00;;
38725;SDS011;24474;48.906;8.808;2023-02-28T17:11:43;14.85;;;9.90;;
38725;SDS011;24474;48.906;8.808;2023-02-28T17:14:09;14.57;;;10.60;;
38725;SDS011;24474;48.906;8.808;2023-02-28T17:16:37;15.20;;;10.45;;
38725;SDS011;24474;48.906;8.808;2023-02-28T17:19:09;15.32;;;10.88;;
38725;SDS011;24474;48.906;8.808;2023-02-28T17:21:37;14.48;;;10.10;;
38725;SDS011;24474;48.906;8.808;2023-02-28T17:24:03;14.07;;;9.88;;
38725;SDS011;24474;48.906;8.808;2023-02-28T17:26:29;16.77;;;10.23;;
38725;SDS011;24474;48.906;8.808;2023-02-28T17:28:56;15.35;;;10.45;;
38725;SDS011;24474;48.906;8.808;2023-02-28T17:31:23;15.02;;;10.43;;
38725;SDS011;24474;48.906;8.808;2023-02-28T17:33:49;14.27;;;10.77;;
38725;SDS011;24474;48.906;8.808;2023-02-28T17:36:18;15.40;;;11.02;;
38725;SDS011;24474;48.906;8.808;2023-02-28T17:38:52;15.55;;;10.55;;
38725;SDS011;24474;48.906;8.808;2023-02-28T17:41:19;14.73;;;10.95;;
38725;SDS011;24474;48.906;8.808;2023-02-28T17:43:46;20.73;;;12.88;;